Time;durP1;ratioP1;P1;durP2;ratioP2;P2;SDS_P1;SDS_P2;PMS_P1;PMS_P2;Temp;Humidity;BMP_temperature;BMP_pressure;BME280_temperature;BME280_humidity;BME280_pressure;Samples;Min_cycle;Max_cycle;Signal;HPM_P1;HPM_P2
2024/04/05 00:01:03;;;;;;;;;;;;;;;23.91;40.32;100746.84;4130625;28;20462;-66
2024/04/05 00:03:04;;;;;;;;;;;;;;;23.91;40.38;100730.72;4130450;28;20004;-67
2024/04/05 00:05:05;;;;;;;;;;;;;;;23.91;40.15;100726.22;4130553;28;19929;-67
2024/04/05 00:07:05;;;;;;;;;;;;;;;23.91;40.31;100720.84;4130443;28;19926;-67
2024/04/05 00:09:06;;;;;;;;;;;;;;;23.92;40.44;100713.59;4130262;28;19926;-67
2024/04/05 00:11:07;;;;;;;;;;;;;;;23.91;40.41;100714.59;4130516;28;19962;-67
2024/04/05 00:13:08;;;;;;;;;;;;;;;23.90;40.31;100705.69;4146482;28;20319;-67
2024/04/05 00:15:09;;;;;;;;;;;;;;;23.89;40.36;100712.06;4114365;28;19927;-67
2024/04/05 00:17:10;;;;;;;;;;;;;;;23.90;40.59;100716.44;4129960;28;19980;-67
2024/04/05 00:19:10;;;;;;;;;;;;;;;23.88;40.57;100710.34;4130315;28;19938;-67
2024/04/05 00:21:11;;;;;;;;;;;;;;;23.88;40.55;100709.53;4130444;28;19926;-68
2024/04/05 00:23:12;;;;;;;;;;;;;;;23.88;40.42;100699.63;4141995;28;20024;-67
2024/04/05 00:25:13;;;;;;;;;;;;;;;23.89;40.69;100695.06;4146496;28;19929;-66
2024/04/05 00:27:14;;;;;;;;;;;;;;;23.90;40.34;100694.97;4146373;28;20426;-66
2024/04/05 00:29:14;;;;;;;;;;;;;;;23.90;40.31;100688.72;4145274;28;20294;-67
2024/04/05 00:31:15;;;;;;;;;;;;;;;23.89;40.38;100677.16;4146329;28;19926;-66
2024/04/05 00:33:15;;;;;;;;;;;;;;;23.92;40.36;100673.31;4146320;28;19926;-68
2024/04/05 00:35:16;;;;;;;;;;;;;;;23.92;40.43;100670.63;4146379;28;19925;-67
2024/04/05 00:37:17;;;;;;;;;;;;;;;23.93;40.23;100667.81;4146539;28;20053;-67
2024/04/05 00:39:17;;;;;;;;;;;;;;;23.93;40.17;100661.63;4146561;28;19925;-68
2024/04/05 00:41:18;;;;;;;;;;;;;;;23.92;40.68;100660.75;4146461;28;19976;-67
2024/04/05 00:43:19;;;;;;;;;;;;;;;23.91;40.29;100660.88;4146490;28;19932;-67
2024/04/05 00:45:19;;;;;;;;;;;;;;;23.91;40.34;100653.69;4146572;28;20023;-67
2024/04/05 00:47:20;;;;;;;;;;;;;;;23.89;40.38;100650.28;4145881;28;20321;-67
2024/04/05 00:49:20;;;;;;;;;;;;;;;23.89;40.45;100638.69;4146265;28;19926;-67
2024/04/05 00:51:21;;;;;;;;;;;;;;;23.90;40.65;100646.63;4146511;28;20422;-66
2024/04/05 00:53:24;;;;;;;;;;;;;;;23.89;40.62;100644.91;4146113;28;19933;-67
2024/04/05 00:55:24;;;;;;;;;;;;;;;23.89;40.63;100642.22;4146447;28;19930;-67
2024/04/05 00:57:25;;;;;;;;;;;;;;;23.90;40.37;100638.56;4146253;28;20506;-67
2024/04/05 00:59:26;;;;;;;;;;;;;;;23.91;40.62;100644.75;4146346;28;19956;-67
2024/04/05 01:01:27;;;;;;;;;;;;;;;23.92;40.56;100641.09;4146184;28;20370;-67
2024/04/05 01:03:28;;;;;;;;;;;;;;;23.92;40.62;100641.09;4146966;28;19964;-67
2024/04/05 01:05:29;;;;;;;;;;;;;;;23.91;40.46;100634.00;4149273;28;20358;-67
2024/04/05 01:07:29;;;;;;;;;;;;;;;23.91;40.18;100628.66;4149309;28;20020;-67
2024/04/05 01:09:30;;;;;;;;;;;;;;;23.91;40.34;100626.81;4149173;28;19932;-67
2024/04/05 01:11:31;;;;;;;;;;;;;;;23.91;40.56;100623.28;4149476;28;19925;-67
2024/04/05 01:13:32;;;;;;;;;;;;;;;23.89;40.72;100626.09;4149216;28;19932;-67
2024/04/05 01:15:33;;;;;;;;;;;;;;;23.89;40.56;100623.44;4148697;28;20430;-67
2024/04/05 01:17:34;;;;;;;;;;;;;;;23.88;40.39;100619.03;4149037;28;20399;-67
2024/04/05 01:19:35;;;;;;;;;;;;;;;23.87;40.54;100613.81;4149310;28;19929;-67
2024/04/05 01:21:36;;;;;;;;;;;;;;;23.87;40.48;100608.44;4149011;28;20004;-66
2024/04/05 01:23:42;;;;;;;;;;;;;;;23.90;40.63;100600.09;4149021;28;20379;-67
2024/04/05 01:25:43;;;;;;;;;;;;;;;23.89;40.45;100604.63;4149004;28;19932;-67
2024/04/05 01:27:44;;;;;;;;;;;;;;;23.91;40.22;100612.53;4148912;28;20290;-67
2024/04/05 01:29:44;;;;;;;;;;;;;;;23.88;40.58;100602.09;4148663;28;19965;-66
2024/04/05 01:31:45;;;;;;;;;;;;;;;23.90;40.40;100609.00;4148766;28;20462;-66
2024/04/05 01:33:45;;;;;;;;;;;;;;;23.90;40.43;100600.94;4149019;28;19932;-66
2024/04/05 01:35:46;;;;;;;;;;;;;;;23.89;40.38;100604.63;4148806;28;20419;-67
2024/04/05 01:37:47;;;;;;;;;;;;;;;23.89;40.64;100603.75;4149062;28;19936;-67
2024/04/05 01:39:47;;;;;;;;;;;;;;;23.88;40.29;100600.25;4149019;28;19988;-67
2024/04/05 01:41:48;;;;;;;;;;;;;;;23.89;40.53;100606.44;4148635;28;19925;-67
2024/04/05 01:43:48;;;;;;;;;;;;;;;23.88;40.73;100613.66;4148605;28;19925;-67
2024/04/05 01:45:49;;;;;;;;;;;;;;;23.87;40.40;100617.34;4148864;28;19925;-67
2024/04/05 01:47:50;;;;;;;;;;;;;;;23.87;40.32;100608.44;4132386;28;19926;-67
2024/04/05 01:49:51;;;;;;;;;;;;;;;23.87;40.75;100611.13;4132563;28;19964;-68
2024/04/05 01:51:51;;;;;;;;;;;;;;;23.87;40.66;100613.81;4148746;28;19943;-67
2024/04/05 01:53:52;;;;;;;;;;;;;;;23.87;40.31;100603.06;4148644;28;20418;-67
2024/04/05 01:55:52;;;;;;;;;;;;;;;23.86;40.43;100602.22;4148595;28;19932;-67
2024/04/05 01:57:53;;;;;;;;;;;;;;;23.86;40.65;100587.94;4148643;28;19961;-67
2024/04/05 01:59:54;;;;;;;;;;;;;;;23.86;40.64;100574.53;4148308;28;19945;-66
2024/04/05 02:01:55;;;;;;;;;;;;;;;23.86;40.55;100583.41;4148538;28;20460;-67
2024/04/05 02:03:55;;;;;;;;;;;;;;;23.86;40.43;100580.72;4148394;28;19926;-67
2024/04/05 02:05:56;;;;;;;;;;;;;;;23.88;40.36;100584.13;4148504;28;19925;-66
2024/04/05 02:07:56;;;;;;;;;;;;;;;23.85;40.57;100565.63;4148376;28;19926;-66
2024/04/05 02:09:57;;;;;;;;;;;;;;;23.85;40.14;100560.25;4148188;28;20326;-68
2024/04/05 02:12:01;;;;;;;;;;;;;;;23.85;40.55;100559.41;4148489;28;19995;-67
2024/04/05 02:14:02;;;;;;;;;;;;;;;23.84;40.25;100565.75;4148083;28;19933;-66
2024/04/05 02:16:03;;;;;;;;;;;;;;;23.83;40.58;100564.91;4148229;28;19926;-68
2024/04/05 02:18:08;;;;;;;;;;;;;;;23.81;40.26;100561.53;4148231;28;19959;-67
2024/04/05 02:20:09;;;;;;;;;;;;;;;23.83;40.73;100559.56;4148301;28;19926;-66
2024/04/05 02:22:10;;;;;;;;;;;;;;;23.83;40.23;100559.56;4148085;28;19926;-66
2024/04/05 02:24:11;;;;;;;;;;;;;;;23.84;40.25;100560.38;4148377;28;20346;-67
2024/04/05 02:26:11;;;;;;;;;;;;;;;23.84;40.64;100555.88;4131948;28;19926;-67
2024/04/05 02:28:12;;;;;;;;;;;;;;;23.84;40.33;100542.44;4147772;28;19929;-67
2024/04/05 02:30:13;;;;;;;;;;;;;;;23.86;40.32;100544.97;4147979;28;20024;-66
2024/04/05 02:32:13;;;;;;;;;;;;;;;23.85;40.31;100549.53;4147935;28;19960;-66
2024/04/05 02:34:14;;;;;;;;;;;;;;;23.84;40.26;100546.94;4148000;28;19925;-67
2024/04/05 02:36:14;;;;;;;;;;;;;;;23.86;40.22;100550.34;4148072;28;20064;-66
2024/04/05 02:38:15;;;;;;;;;;;;;;;23.84;40.21;100547.81;4148053;28;19972;-67
2024/04/05 02:40:16;;;;;;;;;;;;;;;23.84;40.20;100555.88;4148173;28;20017;-67
2024/04/05 02:42:16;;;;;;;;;;;;;;;23.83;40.36;100547.94;4147496;28;19980;-67
2024/04/05 02:44:17;;;;;;;;;;;;;;;23.83;40.57;100547.94;4148110;28;20016;-68
2024/04/05 02:46:17;;;;;;;;;;;;;;;23.82;40.28;100543.59;4148142;28;19933;-67
2024/04/05 02:48:18;;;;;;;;;;;;;;;23.82;40.32;100533.69;4147840;28;20020;-67
2024/04/05 02:50:19;;;;;;;;;;;;;;;23.82;40.51;100533.69;4147976;28;19929;-66
2024/04/05 02:52:19;;;;;;;;;;;;;;;23.82;40.09;100528.31;4147933;28;20046;-68
2024/04/05 02:54:20;;;;;;;;;;;;;;;23.82;40.02;100525.63;4147653;28;19929;-66
2024/04/05 02:56:20;;;;;;;;;;;;;;;23.82;40.22;100512.19;4147452;28;19925;-67
2024/04/05 02:58:21;;;;;;;;;;;;;;;23.84;40.22;100512.03;4147528;28;19955;-66
2024/04/05 03:00:22;;;;;;;;;;;;;;;23.85;40.20;100503.00;4147850;28;20383;-66
2024/04/05 03:02:22;;;;;;;;;;;;;;;23.85;40.16;100501.19;4147514;28;19931;-67
2024/04/05 03:04:23;;;;;;;;;;;;;;;23.85;40.09;100503.88;4147637;28;19929;-67
2024/04/05 03:06:24;;;;;;;;;;;;;;;23.84;40.16;100498.63;4147523;28;19965;-65
2024/04/05 03:08:24;;;;;;;;;;;;;;;23.84;40.16;100498.63;4147252;28;19988;-66
2024/04/05 03:10:25;;;;;;;;;;;;;;;23.83;40.30;100495.09;4147173;28;19964;-68
2024/04/05 03:12:26;;;;;;;;;;;;;;;23.81;40.26;100483.66;4147153;28;20445;-68
2024/04/05 03:14:26;;;;;;;;;;;;;;;23.81;40.27;100494.38;4147902;28;20076;-68
2024/04/05 03:16:27;;;;;;;;;;;;;;;23.81;40.24;100480.13;4147258;28;19925;-66
2024/04/05 03:18:27;;;;;;;;;;;;;;;23.83;40.53;100468.25;4147364;28;19925;-66
2024/04/05 03:20:28;;;;;;;;;;;;;;;23.82;40.14;100468.41;4147382;28;19925;-67
2024/04/05 03:22:29;;;;;;;;;;;;;;;23.81;40.36;100464.84;4147166;28;19932;-66
2024/04/05 03:24:30;;;;;;;;;;;;;;;23.81;40.20;100453.28;4131043;28;19926;-67
2024/04/05 03:26:31;;;;;;;;;;;;;;;23.83;40.19;100451.25;4130248;28;20391;-68
2024/04/05 03:28:31;;;;;;;;;;;;;;;23.83;40.36;100446.75;4131102;28;19926;-68
2024/04/05 03:30:32;;;;;;;;;;;;;;;23.83;40.11;100448.56;4131058;28;20295;-68
2024/04/05 03:32:33;;;;;;;;;;;;;;;23.83;39.98;100441.38;4131110;28;20331;-67
2024/04/05 03:34:33;;;;;;;;;;;;;;;23.82;40.17;100441.53;4130885;28;19996;-66
2024/04/05 03:36:34;;;;;;;;;;;;;;;23.83;40.16;100441.38;4131068;28;20048;-67
2024/04/05 03:38:34;;;;;;;;;;;;;;;23.81;40.30;100435.31;4130740;28;19929;-67
2024/04/05 03:40:39;;;;;;;;;;;;;;;23.80;40.25;100422.03;4130315;28;19961;-67
2024/04/05 03:42:39;;;;;;;;;;;;;;;23.79;40.16;100423.03;4130644;28;20485;-67
2024/04/05 03:44:40;;;;;;;;;;;;;;;23.79;40.48;100428.41;4130778;28;19925;-67
2024/04/05 03:46:42;;;;;;;;;;;;;;;23.79;40.15;100420.34;4130635;28;19941;-67
2024/04/05 03:48:43;;;;;;;;;;;;;;;23.78;40.04;100427.56;4130766;28;20049;-67
2024/04/05 03:50:44;;;;;;;;;;;;;;;23.81;40.04;100418.34;4130766;28;19972;-67
2024/04/05 03:52:44;;;;;;;;;;;;;;;23.82;40.08;100414.69;4130638;28;19936;-68
2024/04/05 03:54:45;;;;;;;;;;;;;;;23.81;40.09;100413.81;4130283;28;20498;-67
2024/04/05 03:56:46;;;;;;;;;;;;;;;23.81;40.13;100413.00;4130850;28;19930;-67
2024/04/05 03:58:47;;;;;;;;;;;;;;;23.81;40.24;100404.94;4130761;28;19926;-67
2024/04/05 04:00:50;;;;;;;;;;;;;;;23.81;40.06;100399.56;4130853;28;19926;-67
2024/04/05 04:02:52;;;;;;;;;;;;;;;23.78;40.03;100400.72;4146773;28;19933;-67
2024/04/05 04:04:53;;;;;;;;;;;;;;;23.80;40.05;100392.50;4130601;28;19926;-67
2024/04/05 04:06:54;;;;;;;;;;;;;;;23.78;40.01;100387.28;4130688;28;19925;-68
2024/04/05 04:08:55;;;;;;;;;;;;;;;23.80;40.23;100387.13;4129826;28;19932;-68
2024/04/05 04:10:56;;;;;;;;;;;;;;;23.77;40.00;100390.97;4130724;28;20303;-67
2024/04/05 04:12:56;;;;;;;;;;;;;;;23.77;40.14;100385.59;4130522;28;19961;-67
2024/04/05 04:14:57;;;;;;;;;;;;;;;23.76;40.13;100382.03;4130423;28;20407;-66
2024/04/05 04:16:57;;;;;;;;;;;;;;;23.77;40.06;100383.72;4130827;28;19992;-67
2024/04/05 04:18:58;;;;;;;;;;;;;;;23.77;40.06;100382.91;4130594;28;19926;-66
2024/04/05 04:20:59;;;;;;;;;;;;;;;23.77;40.28;100372.16;4130513;28;19925;-67
2024/04/05 04:23:00;;;;;;;;;;;;;;;23.77;40.25;100364.94;4141048;28;19925;-67
2024/04/05 04:25:00;;;;;;;;;;;;;;;23.79;40.30;100369.31;4146399;28;20469;-66
2024/04/05 04:27:02;;;;;;;;;;;;;;;23.78;40.04;100365.81;4146703;28;20019;-67
2024/04/05 04:29:05;;;;;;;;;;;;;;;23.79;40.24;100369.31;4146579;28;19936;-67
2024/04/05 04:31:16;;;;;;;;;;;;;;;23.79;39.94;100367.47;4146733;28;19929;-67
2024/04/05 04:33:18;;;;;;;;;;;;;;;23.79;39.87;100369.31;4146773;28;19948;-67
2024/04/05 04:35:19;;;;;;;;;;;;;;;23.76;40.22;100355.19;4146661;28;19961;-67
2024/04/05 04:37:20;;;;;;;;;;;;;;;23.75;40.24;100348.13;4147002;28;20331;-67
2024/04/05 04:39:20;;;;;;;;;;;;;;;23.76;39.98;100336.38;4149653;28;19979;-67
2024/04/05 04:41:21;;;;;;;;;;;;;;;23.75;39.94;100334.69;4149915;28;19926;-68
2024/04/05 04:43:22;;;;;;;;;;;;;;;23.75;39.99;100328.50;4149948;28;19972;-67
2024/04/05 04:45:23;;;;;;;;;;;;;;;23.74;39.89;100330.34;4149584;28;19933;-67
2024/04/05 04:47:28;;;;;;;;;;;;;;;23.74;39.95;100330.34;4149838;28;20397;-67
2024/04/05 04:49:29;;;;;;;;;;;;;;;23.75;39.93;100328.50;4149676;28;19949;-68
2024/04/05 04:51:29;;;;;;;;;;;;;;;23.76;40.23;100320.28;4149737;28;19929;-67
2024/04/05 04:53:30;;;;;;;;;;;;;;;23.76;39.82;100322.97;4149366;28;20450;-68
2024/04/05 04:55:31;;;;;;;;;;;;;;;23.75;39.90;100326.63;4149692;28;19926;-67
2024/04/05 04:57:32;;;;;;;;;;;;;;;23.77;39.82;100321.97;4149491;28;19933;-67
2024/04/05 04:59:33;;;;;;;;;;;;;;;23.77;39.91;100324.66;4149427;28;19925;-67
2024/04/05 05:01:34;;;;;;;;;;;;;;;23.75;39.82;100326.63;4149580;28;19926;-67
2024/04/05 05:03:34;;;;;;;;;;;;;;;23.74;39.97;100338.41;4149698;28;19926;-67
2024/04/05 05:05:35;;;;;;;;;;;;;;;23.74;39.83;100324.13;4149621;28;20016;-67
2024/04/05 05:07:35;;;;;;;;;;;;;;;23.72;40.08;100326.97;4148973;28;19971;-67
2024/04/05 05:09:36;;;;;;;;;;;;;;;23.72;39.88;100326.97;4149067;28;20417;-67
2024/04/05 05:11:37;;;;;;;;;;;;;;;23.72;39.94;100326.09;4149442;28;20379;-67
2024/04/05 05:13:38;;;;;;;;;;;;;;;23.76;39.82;100328.34;4149403;28;20418;-67
2024/04/05 05:15:44;;;;;;;;;;;;;;;23.77;40.17;100330.03;4149040;28;19925;-67
2024/04/05 05:17:44;;;;;;;;;;;;;;;23.77;39.80;100329.19;4149248;28;19933;-67
2024/04/05 05:19:45;;;;;;;;;;;;;;;23.76;39.74;100336.38;4149063;28;20407;-68
2024/04/05 05:21:46;;;;;;;;;;;;;;;23.77;39.91;100337.25;4148839;28;20411;-67
2024/04/05 05:23:46;;;;;;;;;;;;;;;23.76;39.73;100333.72;4116639;28;20057;-67
2024/04/05 05:25:48;;;;;;;;;;;;;;;23.76;39.80;100336.38;4132758;28;19926;-67
2024/04/05 05:27:49;;;;;;;;;;;;;;;23.78;39.67;100347.00;4132953;28;20424;-67
2024/04/05 05:29:49;;;;;;;;;;;;;;;23.77;40.11;100362.25;4132680;28;19932;-68
2024/04/05 05:31:50;;;;;;;;;;;;;;;23.77;39.80;100351.50;4132833;28;19941;-68
2024/04/05 05:33:50;;;;;;;;;;;;;;;23.77;39.73;100364.09;4132943;28;20280;-68
2024/04/05 05:35:51;;;;;;;;;;;;;;;23.75;39.74;100347.28;4132461;28;19926;-68
2024/04/05 05:37:52;;;;;;;;;;;;;;;23.74;40.11;100354.50;4132591;28;19985;-68
2024/04/05 05:39:53;;;;;;;;;;;;;;;23.74;39.92;100359.03;4132839;28;20050;-68
2024/04/05 05:41:53;;;;;;;;;;;;;;;23.76;39.76;100363.25;4132646;28;19949;-68
2024/04/05 05:43:54;;;;;;;;;;;;;;;23.75;39.80;100360.72;4132677;28;19926;-66
2024/04/05 05:45:54;;;;;;;;;;;;;;;23.76;39.75;100363.25;4132283;28;20457;-66
2024/04/05 05:47:56;;;;;;;;;;;;;;;23.75;39.76;100364.22;4132752;28;19930;-67
2024/04/05 05:49:56;;;;;;;;;;;;;;;23.80;40.02;100379.06;4131737;28;19976;-65
2024/04/05 05:51:57;;;;;;;;;;;;;;;23.79;39.74;100382.75;4132038;28;20379;-68
2024/04/05 05:53:57;;;;;;;;;;;;;;;23.80;39.65;100395.19;4148738;28;20051;-66
2024/04/05 05:55:58;;;;;;;;;;;;;;;23.81;39.68;100391.50;4132340;28;19928;-67
2024/04/05 05:57:59;;;;;;;;;;;;;;;23.79;39.80;100402.38;4132521;28;19969;-66
2024/04/05 06:00:00;;;;;;;;;;;;;;;23.79;39.66;100393.50;4132543;28;19926;-67
2024/04/05 06:02:01;;;;;;;;;;;;;;;23.77;39.63;100390.97;4131976;28;19941;-67
2024/04/05 06:04:03;;;;;;;;;;;;;;;23.77;39.69;100397.16;4132356;28;19925;-67
2024/04/05 06:06:06;;;;;;;;;;;;;;;23.77;39.97;100385.59;4131756;28;20363;-67
2024/04/05 06:08:07;;;;;;;;;;;;;;;23.75;39.67;100383.03;4132260;28;20010;-67
2024/04/05 06:10:08;;;;;;;;;;;;;;;23.77;39.70;100380.22;4132039;28;19941;-67
2024/04/05 06:12:09;;;;;;;;;;;;;;;23.77;39.61;100382.91;4132272;28;20033;-68
2024/04/05 06:14:10;;;;;;;;;;;;;;;23.77;39.74;100373.00;4132432;28;20334;-67
2024/04/05 06:16:10;;;;;;;;;;;;;;;23.77;39.51;100397.16;4131970;28;20037;-67
2024/04/05 06:18:11;;;;;;;;;;;;;;;23.78;39.78;100387.28;4132193;28;19932;-67
2024/04/05 06:20:12;;;;;;;;;;;;;;;23.80;39.65;100390.66;4131727;28;19988;-67
2024/04/05 06:22:12;;;;;;;;;;;;;;;23.82;39.58;100393.19;4135967;28;20015;-66
2024/04/05 06:24:13;;;;;;;;;;;;;;;23.81;39.67;100403.09;4148173;28;19925;-67
2024/04/05 06:26:14;;;;;;;;;;;;;;;23.81;39.49;100408.44;4148035;28;20335;-66
2024/04/05 06:28:14;;;;;;;;;;;;;;;23.80;39.80;100400.56;4147953;28;19987;-67
2024/04/05 06:30:15;;;;;;;;;;;;;;;23.79;39.43;100418.47;4148059;28;19991;-67
2024/04/05 06:32:16;;;;;;;;;;;;;;;23.79;39.73;100414.97;4148015;28;20016;-66
2024/04/05 06:34:16;;;;;;;;;;;;;;;23.79;39.69;100423.03;4147617;28;20334;-67
2024/04/05 06:36:17;;;;;;;;;;;;;;;23.80;39.38;100424.72;4147664;28;19941;-67
2024/04/05 06:38:19;;;;;;;;;;;;;;;23.80;39.71;100428.25;4147954;28;19944;-66
2024/04/05 06:40:19;;;;;;;;;;;;;;;23.80;39.69;100413.97;4131775;28;19926;-67
2024/04/05 06:42:20;;;;;;;;;;;;;;;23.76;39.54;100416.94;4147961;28;20012;-66
2024/04/05 06:44:21;;;;;;;;;;;;;;;23.77;39.39;100426.69;4147885;28;19960;-68
2024/04/05 06:46:22;;;;;;;;;;;;;;;23.80;39.43;100419.34;4147654;28;19925;-67
2024/04/05 06:48:23;;;;;;;;;;;;;;;23.80;39.07;100430.91;4147546;28;20362;-67
2024/04/05 06:50:25;;;;;;;;;;;;;;;23.79;39.23;100437.28;4147759;28;19929;-67
2024/04/05 06:52:25;;;;;;;;;;;;;;;23.80;39.43;100449.72;4147827;28;20135;-67
2024/04/05 06:54:26;;;;;;;;;;;;;;;23.80;39.14;100448.88;4147819;28;20284;-67
2024/04/05 06:56:27;;;;;;;;;;;;;;;23.79;39.38;100441.81;4147404;28;19926;-67
2024/04/05 06:58:28;;;;;;;;;;;;;;;23.79;39.27;100455.25;4147335;28;20414;-67
2024/04/05 07:00:28;;;;;;;;;;;;;;;23.80;38.99;100448.88;4147272;28;20344;-67
2024/04/05 07:02:29;;;;;;;;;;;;;;;23.79;39.18;100414.97;4146846;28;19984;-67
2024/04/05 07:04:30;;;;;;;;;;;;;;;23.78;39.24;100414.13;4147157;28;19925;-67
2024/04/05 07:06:32;;;;;;;;;;;;;;;23.78;39.12;100427.56;4147495;28;19926;-67
2024/04/05 07:08:32;;;;;;;;;;;;;;;23.77;39.15;100399.84;4147256;28;19925;-67
2024/04/05 07:10:33;;;;;;;;;;;;;;;23.77;39.20;100369.47;4147530;28;19952;-67
2024/04/05 07:12:34;;;;;;;;;;;;;;;23.80;39.02;100454.25;4147487;28;19926;-66
2024/04/05 07:14:35;;;;;;;;;;;;;;;23.81;39.41;100434.47;4147542;28;20252;-67
2024/04/05 07:16:35;;;;;;;;;;;;;;;23.82;39.31;100447.75;4147290;28;19991;-67
2024/04/05 07:18:36;;;;;;;;;;;;;;;23.82;39.07;100449.59;4147086;28;19936;-67
2024/04/05 07:20:40;;;;;;;;;;;;;;;23.83;39.04;100440.53;4147478;28;19925;-67
2024/04/05 07:22:41;;;;;;;;;;;;;;;23.84;39.28;100443.09;4147252;28;20406;-67
2024/04/05 07:24:47;;;;;;;;;;;;;;;23.84;39.06;100496.78;4147413;28;19932;-67
2024/04/05 07:26:48;;;;;;;;;;;;;;;23.83;39.15;100516.56;4147278;28;20378;-66
2024/04/05 07:28:49;;;;;;;;;;;;;;;23.84;39.45;100552.31;4147247;28;19952;-66
2024/04/05 07:30:49;;;;;;;;;;;;;;;23.84;39.21;100549.63;4147142;28;19948;-66
2024/04/05 07:32:53;;;;;;;;;;;;;;;23.82;39.38;100554.34;4146778;28;19925;-66
2024/04/05 07:34:54;;;;;;;;;;;;;;;23.80;39.10;100559.81;4147074;28;19925;-66
2024/04/05 07:36:54;;;;;;;;;;;;;;;23.80;39.29;100577.78;4147199;28;19948;-65
2024/04/05 07:38:55;;;;;;;;;;;;;;;23.81;39.38;100568.75;4147037;28;19925;-65
2024/04/05 07:41:05;;;;;;;;;;;;;;;23.81;39.39;100566.06;4147221;28;19937;-66
2024/04/05 07:43:06;;;;;;;;;;;;;;;23.82;39.65;100567.75;4146963;28;19936;-67
2024/04/05 07:45:07;;;;;;;;;;;;;;;23.83;39.65;100559.56;4147026;28;19925;-66
2024/04/05 07:47:08;;;;;;;;;;;;;;;23.84;39.34;100545.13;4146722;28;19930;-67
2024/04/05 07:49:09;;;;;;;;;;;;;;;23.85;39.30;100541.47;4146788;28;19925;-66
2024/04/05 07:51:12;;;;;;;;;;;;;;;23.86;39.28;100542.28;4147017;28;19925;-66
2024/04/05 07:53:13;;;;;;;;;;;;;;;23.84;39.30;100537.06;4146968;28;20403;-65
2024/04/05 07:55:14;;;;;;;;;;;;;;;23.84;39.47;100542.44;4146750;28;20048;-65
2024/04/05 07:57:14;;;;;;;;;;;;;;;23.83;39.37;100535.38;4146700;28;19926;-66
2024/04/05 07:59:15;;;;;;;;;;;;;;;23.84;39.51;100528.16;4147039;28;19964;-66
2024/04/05 08:01:18;;;;;;;;;;;;;;;23.81;39.37;100513.19;4146586;28;19976;-67
2024/04/05 08:03:19;;;;;;;;;;;;;;;23.82;39.31;100506.81;4146911;28;20001;-67
2024/04/05 08:05:19;;;;;;;;;;;;;;;23.83;39.52;100505.84;4146580;28;19976;-67
2024/04/05 08:07:23;;;;;;;;;;;;;;;23.84;39.70;100514.72;4146792;28;19925;-67
2024/04/05 08:09:24;;;;;;;;;;;;;;;23.86;39.47;100540.44;4146500;28;19930;-67
2024/04/05 08:11:25;;;;;;;;;;;;;;;23.85;39.48;100541.47;4146823;28;19925;-67
2024/04/05 08:13:26;;;;;;;;;;;;;;;23.87;39.42;100549.38;4146499;28;19973;-66
2024/04/05 08:15:29;;;;;;;;;;;;;;;23.87;39.48;100552.88;4146523;28;19937;-66
2024/04/05 08:17:30;;;;;;;;;;;;;;;23.86;39.57;100561.94;4146669;28;20360;-67
2024/04/05 08:19:30;;;;;;;;;;;;;;;23.87;39.59;100555.56;4146698;28;19933;-67
2024/04/05 08:21:31;;;;;;;;;;;;;;;23.88;39.70;100551.06;4146787;28;20406;-68
2024/04/05 08:23:31;;;;;;;;;;;;;;;23.86;39.87;100548.50;4146758;28;20311;-67
2024/04/05 08:25:32;;;;;;;;;;;;;;;23.87;39.63;100546.69;4130590;28;19949;-68
2024/04/05 08:27:33;;;;;;;;;;;;;;;23.87;39.72;100552.03;4130432;28;19926;-66
2024/04/05 08:29:35;;;;;;;;;;;;;;;23.86;39.96;100569.16;4130070;28;19926;-67
2024/04/05 08:31:35;;;;;;;;;;;;;;;23.86;39.88;100564.63;4130502;28;19926;-66
2024/04/05 08:33:36;;;;;;;;;;;;;;;23.87;39.95;100552.03;4130291;28;19929;-67
2024/04/05 08:35:37;;;;;;;;;;;;;;;23.87;39.77;100565.47;4114195;28;20480;-66
2024/04/05 08:37:37;;;;;;;;;;;;;;;23.87;40.11;100579.75;4146469;28;19925;-66
2024/04/05 08:39:39;;;;;;;;;;;;;;;23.87;39.77;100573.53;4130328;28;19925;-65
2024/04/05 08:41:43;;;;;;;;;;;;;;;23.89;39.86;100569.72;4130150;28;20418;-65
2024/04/05 08:43:44;;;;;;;;;;;;;;;23.92;39.80;100565.88;4130187;28;19930;-66
2024/04/05 08:45:45;;;;;;;;;;;;;;;23.92;39.76;100560.50;4129699;28;20421;-67
2024/04/05 08:47:47;;;;;;;;;;;;;;;23.91;40.08;100558.81;4130320;28;19925;-67
2024/04/05 08:49:49;;;;;;;;;;;;;;;23.90;39.81;100566.03;4146165;28;19933;-67
2024/04/05 08:51:50;;;;;;;;;;;;;;;23.92;39.89;100576.63;4130156;28;19926;-67
2024/04/05 08:53:50;;;;;;;;;;;;;;;23.90;39.79;100570.53;4130318;28;19933;-66
2024/04/05 08:55:51;;;;;;;;;;;;;;;23.90;39.87;100573.22;4129934;28;19926;-67
2024/04/05 08:57:52;;;;;;;;;;;;;;;23.89;39.88;100583.13;4130291;28;19955;-67
2024/04/05 08:59:54;;;;;;;;;;;;;;;23.90;39.94;100584.84;4129846;28;19926;-66
2024/04/05 09:01:57;;;;;;;;;;;;;;;23.92;39.97;100585.56;4130132;28;19925;-67
2024/04/05 09:03:57;;;;;;;;;;;;;;;23.92;39.92;100580.19;4129840;28;19926;-67
2024/04/05 09:05:58;;;;;;;;;;;;;;;23.94;40.18;100580.06;4130054;28;19932;-67
2024/04/05 09:08:05;;;;;;;;;;;;;;;23.96;39.84;100571.84;4130003;28;20049;-67
2024/04/05 09:10:10;;;;;;;;;;;;;;;23.95;39.83;100597.00;4129770;28;19933;-67
2024/04/05 09:12:14;;;;;;;;;;;;;;;23.95;39.80;100568.31;4129879;28;19926;-67
2024/04/05 09:14:15;;;;;;;;;;;;;;;23.96;40.00;100578.03;4129732;28;20011;-67
2024/04/05 09:16:20;;;;;;;;;;;;;;;23.98;39.70;100573.38;4130156;28;19929;-67
2024/04/05 09:18:25;;;;;;;;;;;;;;;23.97;40.04;100579.75;4130005;28;19930;-67
2024/04/05 09:20:29;;;;;;;;;;;;;;;23.97;40.17;100600.41;4129942;28;19927;-67
2024/04/05 09:22:29;;;;;;;;;;;;;;;23.98;39.92;100594.03;4136520;28;19926;-67
2024/04/05 09:24:30;;;;;;;;;;;;;;;23.98;39.90;100583.28;4146820;28;19932;-67
2024/04/05 09:26:31;;;;;;;;;;;;;;;23.99;39.81;100606.47;4149158;28;19925;-68
2024/04/05 09:28:31;;;;;;;;;;;;;;;23.99;39.88;100609.16;4148582;28;20276;-67
2024/04/05 09:30:32;;;;;;;;;;;;;;;24.00;39.77;100602.78;4148909;28;19925;-67
2024/04/05 09:32:33;;;;;;;;;;;;;;;24.00;39.89;100600.09;4148869;28;19925;-67
2024/04/05 09:34:35;;;;;;;;;;;;;;;24.00;39.83;100594.72;4149024;28;20064;-67
2024/04/05 09:36:36;;;;;;;;;;;;;;;23.99;39.95;100618.06;4148923;28;19940;-67
2024/04/05 09:38:39;;;;;;;;;;;;;;;24.00;39.90;100627.81;4149023;28;19929;-66
2024/04/05 09:40:40;;;;;;;;;;;;;;;24.00;40.21;100621.59;4148821;28;19925;-67
2024/04/05 09:42:41;;;;;;;;;;;;;;;24.00;40.09;100616.22;4148464;28;20284;-67
2024/04/05 09:44:43;;;;;;;;;;;;;;;24.01;39.87;100621.47;4148881;28;19929;-67
2024/04/05 09:46:44;;;;;;;;;;;;;;;24.02;39.96;100625.84;4148675;28;20008;-66
2024/04/05 09:48:45;;;;;;;;;;;;;;;24.02;39.82;100633.91;4148696;28;19980;-66
2024/04/05 09:50:47;;;;;;;;;;;;;;;24.04;40.00;100645.34;4148743;28;19930;-66
2024/04/05 09:52:51;;;;;;;;;;;;;;;24.04;39.81;100637.28;4148606;28;19929;-67
2024/04/05 09:55:04;;;;;;;;;;;;;;;24.04;39.83;100648.03;4148573;28;19948;-66
2024/04/05 09:57:10;;;;;;;;;;;;;;;24.05;40.37;100636.28;4148011;28;19930;-66
2024/04/05 09:59:13;;;;;;;;;;;;;;;24.05;40.13;100628.22;4148480;28;20016;-67
2024/04/05 10:01:15;;;;;;;;;;;;;;;24.08;39.90;100629.78;4148813;28;19925;-66
2024/04/05 10:03:16;;;;;;;;;;;;;;;24.09;40.05;100631.47;4164851;28;19928;-67
2024/04/05 10:05:23;;;;;;;;;;;;;;;24.11;39.88;100637.56;4148543;28;20469;-66
2024/04/05 10:07:26;;;;;;;;;;;;;;;24.07;39.80;100646.88;4148504;28;19975;-67
2024/04/05 10:09:33;;;;;;;;;;;;;;;24.09;40.10;100643.06;4148126;28;20288;-67
2024/04/05 10:11:33;;;;;;;;;;;;;;;24.14;40.03;100639.09;4148198;28;19932;-66
2024/04/05 10:13:34;;;;;;;;;;;;;;;24.12;39.98;100633.03;4148346;28;19925;-66
2024/04/05 10:15:35;;;;;;;;;;;;;;;24.14;39.76;100639.94;4148328;28;19925;-66
2024/04/05 10:17:37;;;;;;;;;;;;;;;24.17;40.12;100630.72;4148257;28;20013;-66
2024/04/05 10:19:38;;;;;;;;;;;;;;;24.18;39.77;100624.38;4148334;28;20391;-66
2024/04/05 10:21:40;;;;;;;;;;;;;;;24.18;39.85;100636.00;4148121;28;20424;-66